Scf Baltica — A8IA5 — position and weather

sailwx.info

Track history (hours):
 
Tides and Currents Weather Stations Pressure Air Temp Water Temp Dewpoint Dewpoint Depression Visibility Wind Speed Wind Dir Waves Ship Positions

Scf Baltica

Last reported at 2014-Aug-01 15:33 UTC. Time now 2014-Aug-01 16:00 UTC.
Position N 54°29' E 011°36'.

Length 250 m; draft 14.3 m.

Type: Ship. MMSI: 636012813.

Date/timePositionNaut miles runAvg speedWind from/ knotsBaromVisibWave heightAir tempDewpointWater temp
2014-Aug-01 15:33N 54°29' E 011°36'1110.8
2014-Aug-01 14:33N 54°27' E 011°54'1010.4
2014-Aug-01 13:33N 54°28' E 012°12'1010.3
2014-Aug-01 12:33N 54°37' E 012°19'8 7.6
2014-Aug-01 11:33N 54°42' E 012°30'8 8.0
2014-Aug-01 10:33N 54°46' E 012°42'1010.2
2014-Aug-01 09:33N 54°50' E 012°58'1211.9
2014-Aug-01 08:33N 54°54' E 013°17'1212.0
2014-Aug-01 07:33N 54°58' E 013°37'1411.9
2014-Aug-01 06:21N 55°03' E 014°00'911.3
2014-Aug-01 05:33N 55°09' E 014°12'1211.8
2014-Aug-01 04:33N 55°18' E 014°25'1211.6
2014-Aug-01 03:33N 55°27' E 014°39'1211.5
2014-Aug-01 02:32N 55°33' E 014°57'1211.6
2014-Aug-01 01:31N 55°38' E 015°15'1312.0
2014-Aug-01 00:24N 55°41' E 015°39'3411.8
2014-Jul-31 21:33N 55°49' E 016°37'26610.6
2014-Jul-30 20:26N 59°14' E 021°52'2110.3
2014-Jul-30 18:23N 59°27' E 022°24'1310.0
2014-Jul-30 17:04N 59°32' E 022°48'1810.2
2014-Jul-30 15:19N 59°38' E 023°22'810.4
2014-Jul-30 14:33N 59°40' E 023°37'9 8.5
2014-Jul-30 13:29N 59°42' E 023°54'2211.0
2014-Jul-30 11:28N 59°48' E 024°37'1412.1
2014-Jul-30 10:20N 59°51' E 025°04'1012.1
2014-Jul-30 09:32N 59°53' E 025°22'2412.0
2014-Jul-30 07:30N 59°58' E 026°10'1111.7
2014-Jul-30 06:33N 60°01' E 026°31'1611.6
2014-Jul-30 05:11N 59°60' E 027°03'911.8
2014-Jul-30 04:25N 60°04' E 027°18'32 0.9
2014-Jul-28 17:05N 60°08' E 028°23'2113.1
2014-Jul-28 15:29N 60°09' E 027°40'1313.9
2014-Jul-28 14:33N 60°02' E 027°19'1313.2
2014-Jul-28 13:33N 59°58' E 026°53'1413.6
2014-Jul-28 12:33N 59°58' E 026°26'1414.0
2014-Jul-28 11:33N 59°54' E 025°59'1414.0
2014-Jul-28 10:33N 59°51' E 025°32'1413.9
2014-Jul-28 09:33N 59°48' E 025°05'1414.1
2014-Jul-28 08:34N 59°45' E 024°38'3013.7
2014-Jul-28 06:23N 59°36' E 023°41'1113.7
2014-Jul-28 05:33N 59°32' E 023°20'1413.8
2014-Jul-28 04:33N 59°28' E 022°54'1413.8
2014-Jul-28 03:33N 59°22' E 022°30'2813.8
2014-Jul-28 01:34N 59°05' E 021°48'8313.8
2014-Jul-27 19:33N 57°57' E 020°19'1414.1
2014-Jul-27 18:33N 57°45' E 020°02'1414.1
2014-Jul-27 17:34N 57°34' E 019°46'9013.9
2014-Jul-27 11:05N 56°31' E 017°50'713.6
2014-Jul-27 10:33N 56°26' E 017°39'1413.5
2014-Jul-27 09:29N 56°17' E 017°19'5513.7
2014-Jul-27 05:26N 55°46' E 015°57'1413.8
2014-Jul-27 04:27N 55°39' E 015°36'1214.0
2014-Jul-27 03:33N 55°33' E 015°17'1414.1
2014-Jul-27 02:33N 55°27' E 014°54'1413.8
2014-Jul-27 01:33N 55°19' E 014°34'1414.1
2014-Jul-27 00:33N 55°08' E 014°19'1313.5
2014-Jul-26 23:33N 54°60' E 014°01'1413.8
2014-Jul-26 22:33N 54°55' E 013°38'1413.6
2014-Jul-26 21:33N 54°51' E 013°15'1413.8
2014-Jul-26 20:33N 54°46' E 012°53'1313.2
2014-Jul-26 19:32N 54°41' E 012°32'1212.3
2014-Jul-26 18:33N 54°33' E 012°16'1111.1
2014-Jul-26 17:33N 54°25' E 012°03'1312.8
2014-Jul-26 16:33N 54°27' E 011°41'1313.3
2014-Jul-26 15:34N 54°32' E 011°20'1313.1
2014-Jul-26 14:34N 54°39' E 011°01'6710.5
2014-Jul-26 08:12N 55°45' E 010°48'5 7.5
2014-Jul-26 07:33N 55°50' E 010°49'1211.9
2014-Jul-26 06:33N 55°60' E 011°02'1211.8
2014-Jul-26 05:33N 56°09' E 011°14'1312.9
2014-Jul-26 04:32N 56°20' E 011°27'1312.7
2014-Jul-26 03:32N 56°32' E 011°38'1312.6
2014-Jul-26 02:29N 56°43' E 011°50'1112.2
2014-Jul-26 01:33N 56°54' E 011°47'1212.5
2014-Jul-26 00:33N 57°06' E 011°38'1312.7
2014-Jul-25 23:34N 57°17' E 011°29'1212.4
2014-Jul-25 22:33N 57°29' E 011°21'1111.5
2014-Jul-25 21:34N 57°29' E 010°59'8 8.3
2014-Jul-25 20:33N 57°25' E 010°46'0 0.1
2014-Jul-25 19:30N 57°25' E 010°46'0 0.0
2014-Jul-25 17:24N 57°25' E 010°46'0 0.0
2014-Jul-25 16:33N 57°25' E 010°46'0 0.0
2014-Jul-25 13:33N 57°25' E 010°46'0 0.0
2014-Jul-25 09:30N 57°25' E 010°46'0 0.0
2014-Jul-25 08:33N 57°25' E 010°46'0 0.0
2014-Jul-25 07:33N 57°25' E 010°46'0 0.0
2014-Jul-25 06:27N 57°25' E 010°46'0 0.0
2014-Jul-25 05:21N 57°25' E 010°46'0 0.0
2014-Jul-25 04:33N 57°25' E 010°46'0 0.0
2014-Jul-25 03:33N 57°25' E 010°46'0 0.1
2014-Jul-25 02:33N 57°25' E 010°46'0 0.0
2014-Jul-25 01:30N 57°25' E 010°46'0 0.0
2014-Jul-25 00:33N 57°25' E 010°46'0 0.1
2014-Jul-24 23:33N 57°25' E 010°46'0 0.0
2014-Jul-24 22:33N 57°25' E 010°46'0 0.0
2014-Jul-24 21:33N 57°25' E 010°46'0 0.1
2014-Jul-24 20:24N 57°25' E 010°46'0 0.1
2014-Jul-24 19:33N 57°25' E 010°46'0 0.1
2014-Jul-24 18:27N 57°25' E 010°46'0 0.1
2014-Jul-24 17:27N 57°25' E 010°46'0 0.1
2014-Jul-24 16:21N 57°25' E 010°46'0 0.2
2014-Jul-24 15:33N 57°25' E 010°46'0 0.2
2014-Jul-24 14:33N 57°25' E 010°46'1 1.4
2014-Jul-24 13:33N 57°27' E 010°45'2 2.4
2014-Jul-24 12:33N 57°29' E 010°46'0 0.5
2014-Jul-24 11:33N 57°29' E 010°47'0 0.0
2014-Jul-24 10:33N 57°29' E 010°47'0 0.0
2014-Jul-24 09:33N 57°29' E 010°47'0 0.0
2014-Jul-24 08:30N 57°29' E 010°47'0 0.0
2014-Jul-24 07:33N 57°29' E 010°47'0 0.1
2014-Jul-24 06:33N 57°29' E 010°47'0 0.0
2014-Jul-24 05:33N 57°29' E 010°47'0 0.1
2014-Jul-24 04:33N 57°29' E 010°47'0 0.1
2014-Jul-24 03:33N 57°29' E 010°47'0 0.0
2014-Jul-24 02:33N 57°29' E 010°47'0 0.0
2014-Jul-24 01:33N 57°29' E 010°46'0 0.0
2014-Jul-24 00:24N 57°29' E 010°47'0 0.0
2014-Jul-23 23:06N 57°29' E 010°47'0 0.0
2014-Jul-23 22:30N 57°29' E 010°47'0 0.0
2014-Jul-23 21:33N 57°29' E 010°47'0 0.0
2014-Jul-23 20:33N 57°29' E 010°47'0 0.1
2014-Jul-23 19:33N 57°29' E 010°46'0 0.1
2014-Jul-23 18:33N 57°29' E 010°47'0 0.0
2014-Jul-23 17:21N 57°29' E 010°47'0 0.0
2014-Jul-23 16:30N 57°29' E 010°47'0 0.1
2014-Jul-23 15:30N 57°29' E 010°47'0 0.1
2014-Jul-23 14:33N 57°29' E 010°46'0 0.0
2014-Jul-23 13:33N 57°29' E 010°47'0 0.1
2014-Jul-23 12:33N 57°29' E 010°47'0 0.0
2014-Jul-23 11:33N 57°29' E 010°47'0 0.0
2014-Jul-23 10:30N 57°29' E 010°47'0 0.0
2014-Jul-23 09:33N 57°29' E 010°47'0 0.0
2014-Jul-23 08:30N 57°29' E 010°47'0 0.0
2014-Jul-23 07:27N 57°29' E 010°47'0 0.0
2014-Jul-23 06:33N 57°29' E 010°47'0 0.0
2014-Jul-23 05:33N 57°29' E 010°47'0 0.0
2014-Jul-23 04:06N 57°29' E 010°47'0 0.0
2014-Jul-23 03:24N 57°29' E 010°47'0 0.0
2014-Jul-23 02:33N 57°29' E 010°46'0 0.0
2014-Jul-23 01:33N 57°29' E 010°47'0 0.1
2014-Jul-23 00:33N 57°29' E 010°47'0 0.0
2014-Jul-22 23:33N 57°29' E 010°47'0 0.0
2014-Jul-22 22:33N 57°29' E 010°47'0 0.0
2014-Jul-22 21:33N 57°29' E 010°47'0 0.0
2014-Jul-22 20:33N 57°29' E 010°47'0 0.0
2014-Jul-22 19:27N 57°29' E 010°47'0 0.1
2014-Jul-22 18:30N 57°29' E 010°47'0 0.1
2014-Jul-22 17:33N 57°29' E 010°47'0 0.0
2014-Jul-22 16:33N 57°29' E 010°47'  
Track history (hours):
 
Tides and Currents Weather Stations Pressure Air Temp Water Temp Dewpoint Dewpoint Depression Visibility Wind Speed Wind Dir Waves Ship Positions

Scf Baltica

Last reported at 2014-Aug-01 15:33 UTC. Time now 2014-Aug-01 16:00 UTC.
Position N 54°29' E 011°36'.

Length 250 m; draft 14.3 m.

Type: Ship. MMSI: 636012813.

Date/timePositionNaut miles runAvg speedWind from/ knotsBaromVisibWave heightAir tempDewpointWater temp
2014-Aug-01 15:33N 54°29' E 011°36'1110.8
2014-Aug-01 14:33N 54°27' E 011°54'1010.4
2014-Aug-01 13:33N 54°28' E 012°12'1010.3
2014-Aug-01 12:33N 54°37' E 012°19'8 7.6
2014-Aug-01 11:33N 54°42' E 012°30'8 8.0
2014-Aug-01 10:33N 54°46' E 012°42'1010.2
2014-Aug-01 09:33N 54°50' E 012°58'1211.9
2014-Aug-01 08:33N 54°54' E 013°17'1212.0
2014-Aug-01 07:33N 54°58' E 013°37'1411.9
2014-Aug-01 06:21N 55°03' E 014°00'911.3
2014-Aug-01 05:33N 55°09' E 014°12'1211.8
2014-Aug-01 04:33N 55°18' E 014°25'1211.6
2014-Aug-01 03:33N 55°27' E 014°39'1211.5
2014-Aug-01 02:32N 55°33' E 014°57'1211.6
2014-Aug-01 01:31N 55°38' E 015°15'1312.0
2014-Aug-01 00:24N 55°41' E 015°39'3411.8
2014-Jul-31 21:33N 55°49' E 016°37'26610.6
2014-Jul-30 20:26N 59°14' E 021°52'2110.3
2014-Jul-30 18:23N 59°27' E 022°24'1310.0
2014-Jul-30 17:04N 59°32' E 022°48'1810.2
2014-Jul-30 15:19N 59°38' E 023°22'810.4
2014-Jul-30 14:33N 59°40' E 023°37'9 8.5
2014-Jul-30 13:29N 59°42' E 023°54'2211.0
2014-Jul-30 11:28N 59°48' E 024°37'1412.1
2014-Jul-30 10:20N 59°51' E 025°04'1012.1
2014-Jul-30 09:32N 59°53' E 025°22'2412.0
2014-Jul-30 07:30N 59°58' E 026°10'1111.7
2014-Jul-30 06:33N 60°01' E 026°31'1611.6
2014-Jul-30 05:11N 59°60' E 027°03'911.8
2014-Jul-30 04:25N 60°04' E 027°18'32 0.9
2014-Jul-28 17:05N 60°08' E 028°23'2113.1
2014-Jul-28 15:29N 60°09' E 027°40'1313.9
2014-Jul-28 14:33N 60°02' E 027°19'1313.2
2014-Jul-28 13:33N 59°58' E 026°53'1413.6
2014-Jul-28 12:33N 59°58' E 026°26'1414.0
2014-Jul-28 11:33N 59°54' E 025°59'1414.0
2014-Jul-28 10:33N 59°51' E 025°32'1413.9
2014-Jul-28 09:33N 59°48' E 025°05'1414.1
2014-Jul-28 08:34N 59°45' E 024°38'3013.7
2014-Jul-28 06:23N 59°36' E 023°41'1113.7
2014-Jul-28 05:33N 59°32' E 023°20'1413.8
2014-Jul-28 04:33N 59°28' E 022°54'1413.8
2014-Jul-28 03:33N 59°22' E 022°30'2813.8
2014-Jul-28 01:34N 59°05' E 021°48'8313.8
2014-Jul-27 19:33N 57°57' E 020°19'1414.1
2014-Jul-27 18:33N 57°45' E 020°02'1414.1
2014-Jul-27 17:34N 57°34' E 019°46'9013.9
2014-Jul-27 11:05N 56°31' E 017°50'713.6
2014-Jul-27 10:33N 56°26' E 017°39'1413.5
2014-Jul-27 09:29N 56°17' E 017°19'5513.7
2014-Jul-27 05:26N 55°46' E 015°57'1413.8
2014-Jul-27 04:27N 55°39' E 015°36'1214.0
2014-Jul-27 03:33N 55°33' E 015°17'1414.1
2014-Jul-27 02:33N 55°27' E 014°54'1413.8
2014-Jul-27 01:33N 55°19' E 014°34'1414.1
2014-Jul-27 00:33N 55°08' E 014°19'1313.5
2014-Jul-26 23:33N 54°60' E 014°01'1413.8
2014-Jul-26 22:33N 54°55' E 013°38'1413.6
2014-Jul-26 21:33N 54°51' E 013°15'1413.8
2014-Jul-26 20:33N 54°46' E 012°53'1313.2
2014-Jul-26 19:32N 54°41' E 012°32'1212.3
2014-Jul-26 18:33N 54°33' E 012°16'1111.1
2014-Jul-26 17:33N 54°25' E 012°03'1312.8
2014-Jul-26 16:33N 54°27' E 011°41'1313.3
2014-Jul-26 15:34N 54°32' E 011°20'1313.1
2014-Jul-26 14:34N 54°39' E 011°01'6710.5
2014-Jul-26 08:12N 55°45' E 010°48'5 7.5
2014-Jul-26 07:33N 55°50' E 010°49'1211.9
2014-Jul-26 06:33N 55°60' E 011°02'1211.8
2014-Jul-26 05:33N 56°09' E 011°14'1312.9
2014-Jul-26 04:32N 56°20' E 011°27'1312.7
2014-Jul-26 03:32N 56°32' E 011°38'1312.6
2014-Jul-26 02:29N 56°43' E 011°50'1112.2
2014-Jul-26 01:33N 56°54' E 011°47'1212.5
2014-Jul-26 00:33N 57°06' E 011°38'1312.7
2014-Jul-25 23:34N 57°17' E 011°29'1212.4
2014-Jul-25 22:33N 57°29' E 011°21'1111.5
2014-Jul-25 21:34N 57°29' E 010°59'8 8.3
2014-Jul-25 20:33N 57°25' E 010°46'0 0.1
2014-Jul-25 19:30N 57°25' E 010°46'0 0.0
2014-Jul-25 17:24N 57°25' E 010°46'0 0.0
2014-Jul-25 16:33N 57°25' E 010°46'0 0.0
2014-Jul-25 13:33N 57°25' E 010°46'0 0.0
2014-Jul-25 09:30N 57°25' E 010°46'0 0.0
2014-Jul-25 08:33N 57°25' E 010°46'0 0.0
2014-Jul-25 07:33N 57°25' E 010°46'0 0.0
2014-Jul-25 06:27N 57°25' E 010°46'0 0.0
2014-Jul-25 05:21N 57°25' E 010°46'0 0.0
2014-Jul-25 04:33N 57°25' E 010°46'0 0.0
2014-Jul-25 03:33N 57°25' E 010°46'0 0.1
2014-Jul-25 02:33N 57°25' E 010°46'0 0.0
2014-Jul-25 01:30N 57°25' E 010°46'0 0.0
2014-Jul-25 00:33N 57°25' E 010°46'0 0.1
2014-Jul-24 23:33N 57°25' E 010°46'0 0.0
2014-Jul-24 22:33N 57°25' E 010°46'0 0.0
2014-Jul-24 21:33N 57°25' E 010°46'0 0.1
2014-Jul-24 20:24N 57°25' E 010°46'0 0.1
2014-Jul-24 19:33N 57°25' E 010°46'0 0.1
2014-Jul-24 18:27N 57°25' E 010°46'0 0.1
2014-Jul-24 17:27N 57°25' E 010°46'0 0.1
2014-Jul-24 16:21N 57°25' E 010°46'0 0.2
2014-Jul-24 15:33N 57°25' E 010°46'0 0.2
2014-Jul-24 14:33N 57°25' E 010°46'1 1.4
2014-Jul-24 13:33N 57°27' E 010°45'2 2.4
2014-Jul-24 12:33N 57°29' E 010°46'0 0.5
2014-Jul-24 11:33N 57°29' E 010°47'0 0.0
2014-Jul-24 10:33N 57°29' E 010°47'0 0.0
2014-Jul-24 09:33N 57°29' E 010°47'0 0.0
2014-Jul-24 08:30N 57°29' E 010°47'0 0.0
2014-Jul-24 07:33N 57°29' E 010°47'0 0.1
2014-Jul-24 06:33N 57°29' E 010°47'0 0.0
2014-Jul-24 05:33N 57°29' E 010°47'0 0.1
2014-Jul-24 04:33N 57°29' E 010°47'0 0.1
2014-Jul-24 03:33N 57°29' E 010°47'0 0.0
2014-Jul-24 02:33N 57°29' E 010°47'0 0.0
2014-Jul-24 01:33N 57°29' E 010°46'0 0.0
2014-Jul-24 00:24N 57°29' E 010°47'0 0.0
2014-Jul-23 23:06N 57°29' E 010°47'0 0.0
2014-Jul-23 22:30N 57°29' E 010°47'0 0.0
2014-Jul-23 21:33N 57°29' E 010°47'0 0.0
2014-Jul-23 20:33N 57°29' E 010°47'0 0.1
2014-Jul-23 19:33N 57°29' E 010°46'0 0.1
2014-Jul-23 18:33N 57°29' E 010°47'0 0.0
2014-Jul-23 17:21N 57°29' E 010°47'0 0.0
2014-Jul-23 16:30N 57°29' E 010°47'0 0.1
2014-Jul-23 15:30N 57°29' E 010°47'0 0.1
2014-Jul-23 14:33N 57°29' E 010°46'0 0.0
2014-Jul-23 13:33N 57°29' E 010°47'0 0.1
2014-Jul-23 12:33N 57°29' E 010°47'0 0.0
2014-Jul-23 11:33N 57°29' E 010°47'0 0.0
2014-Jul-23 10:30N 57°29' E 010°47'0 0.0
2014-Jul-23 09:33N 57°29' E 010°47'0 0.0
2014-Jul-23 08:30N 57°29' E 010°47'0 0.0
2014-Jul-23 07:27N 57°29' E 010°47'0 0.0
2014-Jul-23 06:33N 57°29' E 010°47'0 0.0
2014-Jul-23 05:33N 57°29' E 010°47'0 0.0
2014-Jul-23 04:06N 57°29' E 010°47'0 0.0
2014-Jul-23 03:24N 57°29' E 010°47'0 0.0
2014-Jul-23 02:33N 57°29' E 010°46'0 0.0
2014-Jul-23 01:33N 57°29' E 010°47'0 0.1
2014-Jul-23 00:33N 57°29' E 010°47'0 0.0
2014-Jul-22 23:33N 57°29' E 010°47'0 0.0
2014-Jul-22 22:33N 57°29' E 010°47'0 0.0
2014-Jul-22 21:33N 57°29' E 010°47'0 0.0
2014-Jul-22 20:33N 57°29' E 010°47'0 0.0
2014-Jul-22 19:27N 57°29' E 010°47'0 0.1
2014-Jul-22 18:30N 57°29' E 010°47'0 0.1
2014-Jul-22 17:33N 57°29' E 010°47'0 0.0
2014-Jul-22 16:33N 57°29' E 010°47'  

Dump ship's entire track history